Time;durP1;ratioP1;P1;durP2;ratioP2;P2;SDS_P1;SDS_P2;PMS_P1;PMS_P2;Temp;Humidity;BMP_temperature;BMP_pressure;BME280_temperature;BME280_humidity;BME280_pressure;Samples;Min_cycle;Max_cycle;Signal;HPM_P1;HPM_P2
2022/09/07 00:02:19;;;;;;;108.28;47.33;;;;;;;-144.48;100.00;62369.91;4983186;28;20545;-70
2022/09/07 00:04:45;;;;;;;117.93;51.22;;;;;;;-144.48;100.00;62369.91;4990159;28;20801;-68
2022/09/07 00:07:10;;;;;;;121.18;49.88;;;;;;;-144.48;100.00;62369.91;4990120;28;20141;-70
2022/09/07 00:09:35;;;;;;;115.40;50.50;;;;;;;-144.48;100.00;62369.91;4989719;28;20030;-69
2022/09/07 00:12:01;;;;;;;112.68;50.70;;;;;;;-144.48;100.00;62369.91;4990269;28;20166;-69
2022/09/07 00:14:26;;;;;;;107.72;50.10;;;;;;;-144.48;100.00;62369.91;4989923;28;20027;-70
2022/09/07 00:16:52;;;;;;;119.63;50.08;;;;;;;-144.48;100.00;62369.91;4989263;28;20540;-69
2022/09/07 00:19:17;;;;;;;112.28;50.10;;;;;;;-144.48;100.00;62369.91;4989576;28;20041;-70
2022/09/07 00:21:44;;;;;;;116.47;51.35;;;;;;;-144.48;100.00;62369.91;4990343;28;20093;-70
2022/09/07 00:24:09;;;;;;;110.30;49.30;;;;;;;-144.48;100.00;62369.91;4989922;28;20030;-69
2022/09/07 00:26:34;;;;;;;106.05;46.22;;;;;;;-144.48;100.00;62369.91;4988429;28;20040;-67
2022/09/07 00:29:02;;;;;;;85.13;41.30;;;;;;;-144.48;100.00;62369.91;4990188;28;20034;-70
2022/09/07 00:31:29;;;;;;;119.30;48.03;;;;;;;-144.48;100.00;62369.91;4988520;28;20026;-66
2022/09/07 00:33:57;;;;;;;106.43;48.35;;;;;;;-144.48;100.00;62369.91;4989572;28;20018;-66
2022/09/07 00:36:23;;;;;;;111.18;47.60;;;;;;;-144.48;100.00;62369.91;4989486;28;20085;-68
2022/09/07 00:38:49;;;;;;;99.50;47.88;;;;;;;-144.48;100.00;62369.91;4989562;28;20042;-68
2022/09/07 00:41:15;;;;;;;96.47;45.17;;;;;;;-144.48;100.00;62369.91;4989397;28;20037;-66
2022/09/07 00:43:45;;;;;;;107.32;45.38;;;;;;;-144.48;100.00;62369.91;4989720;28;20077;-68
2022/09/07 00:46:19;;;;;;;98.88;46.10;;;;;;;-144.48;100.00;62369.91;4989936;28;20030;-67
2022/09/07 00:48:59;;;;;;;100.57;46.13;;;;;;;-144.48;100.00;62369.91;4989764;28;20029;-67
2022/09/07 00:51:49;;;;;;;99.72;46.00;;;;;;;-144.48;100.00;62369.91;4988117;28;20108;-69
2022/09/07 00:54:27;;;;;;;91.28;43.03;;;;;;;-144.48;100.00;62369.91;4978771;28;20053;-68
2022/09/07 00:56:52;;;;;;;95.00;44.03;;;;;;;-144.48;100.00;62369.91;4988680;28;20404;-69
2022/09/07 00:59:23;;;;;;;98.53;43.47;;;;;;;-144.48;100.00;62369.91;4989448;28;20026;-67
2022/09/07 01:01:49;;;;;;;87.60;42.88;;;;;;;-144.48;100.00;62369.91;4989679;28;20032;-68
2022/09/07 01:04:15;;;;;;;82.63;43.70;;;;;;;-144.48;100.00;62369.91;4987590;28;20018;-69
2022/09/07 01:06:42;;;;;;;80.50;41.45;;;;;;;-144.48;100.00;62369.91;4988972;28;20129;-69
2022/09/07 01:09:14;;;;;;;78.07;40.03;;;;;;;-144.48;100.00;62369.91;4989474;28;20392;-69
2022/09/07 01:11:42;;;;;;;79.88;39.28;;;;;;;-144.48;100.00;62369.91;4989677;28;20034;-70
2022/09/07 01:14:11;;;;;;;73.68;40.78;;;;;;;-144.48;100.00;62369.91;4989838;28;20109;-69
2022/09/07 01:17:06;;;;;;;79.63;37.13;;;;;;;-144.48;100.00;62369.91;4989370;28;20034;-68
2022/09/07 01:20:06;;;;;;;68.70;36.47;;;;;;;-144.48;100.00;62369.91;4989451;28;20026;-69
2022/09/07 01:23:05;;;;;;;64.72;35.00;;;;;;;-144.48;100.00;62369.91;4988071;28;20026;-66
2022/09/07 01:25:42;;;;;;;64.15;34.58;;;;;;;-144.48;100.00;62369.91;4988259;28;20444;-68
2022/09/07 01:28:14;;;;;;;65.60;33.92;;;;;;;-144.48;100.00;62369.91;4987924;28;20022;-68
2022/09/07 01:30:50;;;;;;;60.90;32.90;;;;;;;-144.48;100.00;62369.91;4988854;28;20137;-69
2022/09/07 01:33:42;;;;;;;57.65;31.95;;;;;;;-144.48;100.00;62369.91;4989109;28;20575;-68
2022/09/07 01:36:17;;;;;;;61.38;32.63;;;;;;;-144.48;100.00;62369.91;4978760;28;20449;-67
2022/09/07 01:39:03;;;;;;;61.38;33.33;;;;;;;-144.48;100.00;62369.91;4987863;28;20031;-69
2022/09/07 01:41:36;;;;;;;58.88;31.55;;;;;;;-144.48;100.00;62369.91;4988572;28;20046;-68
2022/09/07 01:44:34;;;;;;;61.10;32.58;;;;;;;-144.48;100.00;62369.91;4981740;28;20026;-67
2022/09/07 01:47:25;;;;;;;58.28;33.13;;;;;;;-144.48;100.00;62369.91;4992687;28;20022;-68
2022/09/07 01:49:57;;;;;;;57.65;33.00;;;;;;;-144.48;100.00;62369.91;4992934;28;20030;-67
2022/09/07 01:52:37;;;;;;;58.95;31.40;;;;;;;-144.48;100.00;62369.91;4988500;28;20022;-68
2022/09/07 01:55:10;;;;;;;52.05;31.20;;;;;;;-144.48;100.00;62369.91;4990872;28;20019;-68
2022/09/07 01:57:42;;;;;;;50.05;31.70;;;;;;;-144.48;100.00;62369.91;4991762;23;20043;-68
2022/09/07 02:00:11;;;;;;;56.67;32.05;;;;;;;-144.48;100.00;62369.91;4954774;28;20038;-71
2022/09/07 02:03:00;;;;;;;51.60;30.52;;;;;;;-144.48;100.00;62369.91;4967504;28;20508;-69
2022/09/07 02:06:00;;;;;;;46.92;30.20;;;;;;;-144.48;100.00;62369.91;4971505;28;20101;-70
2022/09/07 02:08:32;;;;;;;54.83;29.95;;;;;;;-144.48;100.00;62369.91;4953158;28;20078;-69
2022/09/07 02:11:12;;;;;;;47.22;28.40;;;;;;;-144.48;100.00;62369.91;4952893;28;20027;-71
2022/09/07 02:13:44;;;;;;;53.85;29.02;;;;;;;-144.48;100.00;62369.91;4943441;28;20069;-71
2022/09/07 02:16:14;;;;;;;47.38;29.15;;;;;;;-144.48;100.00;62369.91;4952493;28;20023;-69
2022/09/07 02:18:52;;;;;;;46.22;28.30;;;;;;;-144.48;100.00;62369.91;4953521;28;20023;-70
2022/09/07 02:21:20;;;;;;;48.13;28.53;;;;;;;-144.48;100.00;62369.91;4953716;28;20081;-68
2022/09/07 02:23:52;;;;;;;49.28;30.02;;;;;;;-144.48;100.00;62369.91;4952172;28;20026;-71
2022/09/07 02:26:25;;;;;;;41.22;26.55;;;;;;;-144.48;100.00;62369.91;4951449;28;20159;-71
2022/09/07 02:28:50;;;;;;;42.13;25.88;;;;;;;-144.48;100.00;62369.91;4952383;28;20109;-67
2022/09/07 02:31:16;;;;;;;43.60;27.25;;;;;;;-144.48;100.00;62369.91;4953600;28;20059;-72
2022/09/07 02:33:42;;;;;;;47.05;27.52;;;;;;;-144.48;100.00;62369.91;4953137;28;20400;-72
2022/09/07 02:36:09;;;;;;;48.30;28.63;;;;;;;-144.48;100.00;62369.91;4952422;28;20034;-73
2022/09/07 02:38:35;;;;;;;43.88;26.92;;;;;;;-144.48;100.00;62369.91;4952513;28;20110;-73
2022/09/07 02:41:02;;;;;;;35.40;24.95;;;;;;;-144.48;100.00;62369.91;4952892;28;20110;-72
2022/09/07 02:43:29;;;;;;;46.13;28.38;;;;;;;-144.48;100.00;62369.91;4952347;28;20409;-72
2022/09/07 02:46:16;;;;;;;38.83;26.13;;;;;;;-144.48;100.00;62369.91;4953183;28;20544;-72
2022/09/07 02:49:03;;;;;;;38.10;25.50;;;;;;;-144.48;100.00;62369.91;4953088;28;20449;-72
2022/09/07 02:51:34;;;;;;;40.33;25.58;;;;;;;-144.48;100.00;62369.91;4951197;28;20023;-72
2022/09/07 02:54:00;;;;;;;39.58;23.58;;;;;;;-144.48;100.00;62369.91;4952449;28;20031;-72
2022/09/07 02:56:53;;;;;;;35.40;23.13;;;;;;;-144.48;100.00;62369.91;4951259;28;20027;-72
2022/09/07 02:59:40;;;;;;;39.60;24.83;;;;;;;-144.48;100.00;62369.91;4952461;28;20521;-74
2022/09/07 03:02:16;;;;;;;40.72;24.30;;;;;;;-144.48;100.00;62369.91;4942848;29;20110;-74
2022/09/07 03:04:49;;;;;;;37.28;22.17;;;;;;;-144.48;100.00;62369.91;4952337;28;20027;-73
2022/09/07 03:07:38;;;;;;;31.27;21.90;;;;;;;-144.48;100.00;62369.91;4952437;28;20110;-73
2022/09/07 03:10:05;;;;;;;32.40;21.08;;;;;;;-144.48;100.00;62369.91;4953041;28;20031;-75
2022/09/07 03:12:39;;;;;;;39.08;23.02;;;;;;;-144.48;100.00;62369.91;4951486;28;20030;-73
2022/09/07 03:15:05;;;;;;;31.33;20.88;;;;;;;-144.48;100.00;62369.91;4953294;28;20035;-73
2022/09/07 03:17:30;;;;;;;32.15;21.67;;;;;;;-144.48;100.00;62369.91;4952331;28;20023;-73
2022/09/07 03:19:56;;;;;;;30.20;21.52;;;;;;;-144.48;100.00;62369.91;4952813;28;20035;-71
2022/09/07 03:22:21;;;;;;;28.75;21.20;;;;;;;-144.48;100.00;62369.91;4952977;28;20154;-73
2022/09/07 03:24:46;;;;;;;35.33;22.00;;;;;;;-144.48;100.00;62369.91;4953166;28;20109;-73
2022/09/07 03:27:12;;;;;;;33.90;22.70;;;;;;;-144.48;100.00;62369.91;4953449;28;20624;-73
2022/09/07 03:29:37;;;;;;;34.03;21.48;;;;;;;-144.48;100.00;62369.91;4953824;28;20039;-74
2022/09/07 03:32:02;;;;;;;34.35;21.17;;;;;;;-144.48;100.00;62369.91;4953374;28;20038;-74
2022/09/07 03:34:28;;;;;;;28.83;20.33;;;;;;;-144.48;100.00;62369.91;4953833;28;20393;-73
2022/09/07 03:36:53;;;;;;;29.67;20.33;;;;;;;-144.48;100.00;62369.91;4952582;28;20019;-75
2022/09/07 03:39:22;;;;;;;27.67;20.17;;;;;;;-144.48;100.00;62369.91;4952344;28;20058;-73
2022/09/07 03:41:47;;;;;;;38.55;20.48;;;;;;;-144.48;100.00;62369.91;4951595;28;20031;-72
2022/09/07 03:44:13;;;;;;;25.75;19.55;;;;;;;-144.48;100.00;62369.91;4951892;28;20094;-73
2022/09/07 03:46:38;;;;;;;32.83;19.92;;;;;;;-144.48;100.00;62369.91;4951558;28;20095;-73
2022/09/07 03:49:04;;;;;;;33.08;20.77;;;;;;;-144.48;100.00;62369.91;4952157;28;20434;-72
2022/09/07 03:51:29;;;;;;;31.65;20.10;;;;;;;-144.48;100.00;62369.91;4951279;28;20342;-72
2022/09/07 03:53:56;;;;;;;27.85;19.33;;;;;;;-144.48;100.00;62369.91;4943685;28;20422;-72
2022/09/07 03:56:23;;;;;;;26.10;19.15;;;;;;;-144.48;100.00;62369.91;4951222;28;20035;-74
2022/09/07 03:58:50;;;;;;;29.92;21.17;;;;;;;-144.48;100.00;62369.91;4951307;28;20511;-73
2022/09/07 04:01:18;;;;;;;29.73;19.77;;;;;;;-144.48;100.00;62369.91;4951881;28;20038;-73
2022/09/07 04:03:44;;;;;;;28.40;20.13;;;;;;;-144.48;100.00;62369.91;4951574;28;20512;-72
2022/09/07 04:06:11;;;;;;;29.55;20.08;;;;;;;-144.48;100.00;62369.91;4951331;28;20081;-74
2022/09/07 04:08:37;;;;;;;33.25;20.35;;;;;;;-144.48;100.00;62369.91;4951809;28;20036;-73
2022/09/07 04:11:05;;;;;;;30.75;21.83;;;;;;;-144.48;100.00;62369.91;4951141;28;20070;-73
2022/09/07 04:13:32;;;;;;;29.77;19.80;;;;;;;-144.48;100.00;62369.91;4951147;28;20031;-72
2022/09/07 04:15:58;;;;;;;24.40;17.30;;;;;;;-144.48;100.00;62369.91;4951686;28;20089;-74
2022/09/07 04:18:23;;;;;;;29.70;19.65;;;;;;;-144.48;100.00;62369.91;4951121;28;20058;-73
2022/09/07 04:20:49;;;;;;;35.38;18.25;;;;;;;-144.48;100.00;62369.91;4951144;28;20118;-72
2022/09/07 04:23:16;;;;;;;31.33;19.92;;;;;;;-144.48;100.00;62369.91;4951749;28;20023;-73
2022/09/07 04:25:49;;;;;;;30.65;19.25;;;;;;;-144.48;100.00;62369.91;4949285;28;20913;-76
2022/09/07 04:28:16;;;;;;;29.33;19.65;;;;;;;-144.48;100.00;62369.91;4964762;28;20512;-74
2022/09/07 04:30:41;;;;;;;27.48;19.80;;;;;;;-144.48;100.00;62369.91;4951077;28;20053;-73
2022/09/07 04:33:08;;;;;;;35.28;20.52;;;;;;;-144.48;100.00;62369.91;4951079;28;20425;-73
2022/09/07 04:35:38;;;;;;;29.92;19.10;;;;;;;-144.48;100.00;62369.91;4965219;28;20033;-74
2022/09/07 04:38:05;;;;;;;27.23;18.98;;;;;;;-144.48;100.00;62369.91;4950392;28;20171;-74
2022/09/07 04:40:31;;;;;;;27.55;19.63;;;;;;;-144.48;100.00;62369.91;4948742;28;20023;-74
2022/09/07 04:42:56;;;;;;;30.48;18.98;;;;;;;-144.48;100.00;62369.91;4950706;28;20031;-74
2022/09/07 04:45:21;;;;;;;30.58;19.08;;;;;;;-144.48;100.00;62369.91;4950631;28;20560;-71
2022/09/07 04:47:47;;;;;;;30.58;18.13;;;;;;;-144.48;100.00;62369.91;4950248;28;20037;-72
2022/09/07 04:50:14;;;;;;;33.47;17.70;;;;;;;-144.48;100.00;62369.91;4950410;28;20081;-74
2022/09/07 04:52:39;;;;;;;26.30;18.42;;;;;;;-144.48;100.00;62369.91;4950574;28;20082;-74
2022/09/07 04:55:05;;;;;;;27.55;18.38;;;;;;;-144.48;100.00;62369.91;4950211;28;20027;-73
2022/09/07 04:57:30;;;;;;;33.20;21.15;;;;;;;-144.48;100.00;62369.91;4948852;28;20039;-70
2022/09/07 04:59:55;;;;;;;27.35;17.95;;;;;;;-144.48;100.00;62369.91;4949083;28;20031;-72
2022/09/07 05:02:21;;;;;;;36.28;18.73;;;;;;;-144.48;100.00;62369.91;4950892;28;20027;-72
2022/09/07 05:04:46;;;;;;;27.33;17.50;;;;;;;-144.48;100.00;62369.91;4948377;28;20102;-70
2022/09/07 05:07:11;;;;;;;26.02;17.70;;;;;;;-144.48;100.00;62369.91;4950555;28;20489;-70
2022/09/07 05:09:37;;;;;;;26.77;18.38;;;;;;;-144.48;100.00;62369.91;4950298;28;20042;-73
2022/09/07 05:12:02;;;;;;;25.40;17.73;;;;;;;-144.48;100.00;62369.91;4950657;28;20505;-70
2022/09/07 05:14:28;;;;;;;31.23;17.15;;;;;;;-144.48;100.00;62369.91;4949007;28;20031;-72
2022/09/07 05:16:53;;;;;;;26.27;17.45;;;;;;;-144.48;100.00;62369.91;4950225;28;20480;-71
2022/09/07 05:19:18;;;;;;;33.45;19.35;;;;;;;-144.48;100.00;62369.91;4954054;28;20624;-73
2022/09/07 05:21:44;;;;;;;30.75;18.90;;;;;;;-144.48;100.00;62369.91;4955296;28;20027;-76
2022/09/07 05:24:09;;;;;;;27.63;17.58;;;;;;;-144.48;100.00;62369.91;4941086;28;20418;-73
2022/09/07 05:26:36;;;;;;;27.85;19.10;;;;;;;-144.48;100.00;62369.91;4937412;29;20043;-74
2022/09/07 05:29:04;;;;;;;23.65;17.45;;;;;;;-144.48;100.00;62369.91;4952771;29;20501;-74
2022/09/07 05:31:31;;;;;;;31.35;19.67;;;;;;;-144.48;100.00;62369.91;4954485;28;20054;-75
2022/09/07 05:33:57;;;;;;;34.08;18.98;;;;;;;-144.48;100.00;62369.91;4949948;28;20039;-72
2022/09/07 05:36:26;;;;;;;32.58;18.85;;;;;;;-144.48;100.00;62369.91;4944769;29;20031;-74
2022/09/07 05:38:53;;;;;;;25.38;18.80;;;;;;;-144.48;100.00;62369.91;4954100;28;20402;-76
2022/09/07 05:41:20;;;;;;;28.30;19.33;;;;;;;-144.48;100.00;62369.91;4952605;29;20042;-78
2022/09/07 05:43:46;;;;;;;28.52;17.48;;;;;;;-144.48;100.00;62369.91;4953178;28;20034;-72
2022/09/07 05:46:12;;;;;;;29.45;18.73;;;;;;;-144.48;100.00;62369.91;4946442;28;20027;-78
2022/09/07 05:48:38;;;;;;;27.35;17.95;;;;;;;-144.48;100.00;62369.91;4952968;28;20027;-77
2022/09/07 05:51:04;;;;;;;28.67;17.85;;;;;;;-144.48;100.00;62369.91;4953390;28;20038;-75
2022/09/07 05:53:32;;;;;;;23.80;17.05;;;;;;;-144.48;100.00;62369.91;4942824;28;20040;-71
2022/09/07 05:55:59;;;;;;;29.58;16.77;;;;;;;-144.48;100.00;62369.91;4952860;28;20039;-72
2022/09/07 05:58:25;;;;;;;35.20;17.65;;;;;;;-144.48;100.00;62369.91;4952618;28;20366;-72
2022/09/07 06:00:51;;;;;;;27.63;17.60;;;;;;;-144.48;100.00;62369.91;4953707;28;20027;-70
2022/09/07 06:03:16;;;;;;;28.23;17.13;;;;;;;-144.48;100.00;62369.91;4953318;28;20073;-72
2022/09/07 06:05:41;;;;;;;24.13;15.63;;;;;;;-144.48;100.00;62369.91;4950944;28;20034;-75
2022/09/07 06:08:07;;;;;;;24.08;15.35;;;;;;;-144.48;100.00;62369.91;4953468;28;20035;-71
2022/09/07 06:10:33;;;;;;;27.65;15.25;;;;;;;-144.48;100.00;62369.91;4947672;28;20046;-73
2022/09/07 06:12:59;;;;;;;25.60;15.43;;;;;;;-144.48;100.00;62369.91;4953981;28;20062;-74
2022/09/07 06:15:24;;;;;;;25.05;14.80;;;;;;;-144.48;100.00;62369.91;4953631;28;20058;-76
2022/09/07 06:17:49;;;;;;;25.70;15.38;;;;;;;-144.48;100.00;62369.91;4952721;28;20026;-73
2022/09/07 06:20:15;;;;;;;23.70;14.68;;;;;;;-144.48;100.00;62369.91;4944681;28;20560;-72
2022/09/07 06:22:40;;;;;;;19.40;12.95;;;;;;;-144.48;100.00;62369.91;4950498;29;20047;-74
2022/09/07 06:25:06;;;;;;;21.38;13.13;;;;;;;-144.48;100.00;62369.91;4952338;28;20023;-72
2022/09/07 06:27:32;;;;;;;25.27;12.98;;;;;;;-144.48;100.00;62369.91;4950269;28;20049;-72
2022/09/07 06:29:57;;;;;;;16.75;12.30;;;;;;;-144.48;100.00;62369.91;4952604;28;20412;-72
2022/09/07 06:32:23;;;;;;;19.30;12.02;;;;;;;-144.48;100.00;62369.91;4953818;28;20119;-76
2022/09/07 06:34:48;;;;;;;21.95;13.05;;;;;;;-144.48;100.00;62369.91;4954123;28;20442;-71
2022/09/07 06:37:14;;;;;;;25.48;12.07;;;;;;;-144.48;100.00;62369.91;4952833;28;20023;-72
2022/09/07 06:39:39;;;;;;;18.52;10.88;;;;;;;-144.48;100.00;62369.91;4953682;28;20023;-72
2022/09/07 06:42:05;;;;;;;16.65;11.25;;;;;;;-144.48;100.00;62369.91;4953884;28;20045;-69
2022/09/07 06:44:30;;;;;;;19.83;11.20;;;;;;;-144.48;100.00;62369.91;4943353;28;20106;-74
2022/09/07 06:46:56;;;;;;;19.92;9.98;;;;;;;-144.48;100.00;62369.91;4946224;28;20035;-72
2022/09/07 06:49:22;;;;;;;25.23;10.82;;;;;;;-144.48;100.00;62369.91;4947401;28;20144;-73
2022/09/07 06:51:48;;;;;;;18.10;11.25;;;;;;;-144.48;100.00;62369.91;4946534;28;20071;-76
2022/09/07 06:54:13;;;;;;;17.40;11.05;;;;;;;-144.48;100.00;62369.91;4947035;28;20110;-73
2022/09/07 06:56:39;;;;;;;17.05;10.60;;;;;;;-144.48;100.00;62369.91;4944829;28;20472;-71
2022/09/07 06:59:04;;;;;;;19.23;9.95;;;;;;;-144.48;100.00;62369.91;4946452;28;20782;-70
2022/09/07 07:01:32;;;;;;;24.20;9.48;;;;;;;-144.48;100.00;62369.91;4961588;28;20113;-74
2022/09/07 07:03:58;;;;;;;15.48;8.98;;;;;;;-144.48;100.00;62369.91;4946597;28;20034;-70
2022/09/07 07:06:31;;;;;;;16.83;9.43;;;;;;;-144.48;100.00;62369.91;4943546;29;20416;-74
2022/09/07 07:08:56;;;;;;;14.13;8.80;;;;;;;-144.48;100.00;62369.91;4946139;28;20066;-73
2022/09/07 07:11:22;;;;;;;12.38;9.00;;;;;;;-144.48;100.00;62369.91;4951276;29;20105;-73
2022/09/07 07:13:47;;;;;;;17.80;8.82;;;;;;;-144.48;100.00;62369.91;4952890;28;20461;-73
2022/09/07 07:16:15;;;;;;;16.83;7.97;;;;;;;-144.48;100.00;62369.91;4952102;28;21299;-74
2022/09/07 07:18:41;;;;;;;12.50;8.18;;;;;;;-144.48;100.00;62369.91;4951485;28;20114;-74
2022/09/07 07:21:10;;;;;;;14.55;7.93;;;;;;;-144.48;100.00;62369.91;4950670;28;20560;-74
2022/09/07 07:23:36;;;;;;;;;;;;;;;-144.48;100.00;62369.91;4953339;28;20166;-73
2022/09/07 07:26:03;;;;;;;11.88;6.80;;;;;;;-144.48;100.00;62369.91;4951862;28;20347;-74
2022/09/07 07:28:29;;;;;;;26.52;10.25;;;;;;;-144.48;100.00;62369.91;4951966;28;20039;-74
2022/09/07 07:30:56;;;;;;;14.27;8.15;;;;;;;-144.48;100.00;62369.91;4952371;28;20039;-72
2022/09/07 07:33:22;;;;;;;13.80;7.97;;;;;;;-144.48;100.00;62369.91;4952606;28;20026;-70
2022/09/07 07:35:47;;;;;;;14.15;7.07;;;;;;;-144.48;100.00;62369.91;4951967;28;20032;-72
2022/09/07 07:38:13;;;;;;;17.60;7.13;;;;;;;-144.48;100.00;62369.91;4952162;28;20023;-68
2022/09/07 07:40:38;;;;;;;12.50;7.05;;;;;;;-144.48;100.00;62369.91;4950877;28;20118;-71
2022/09/07 07:43:03;;;;;;;11.18;6.47;;;;;;;-144.48;100.00;62369.91;4952334;28;20147;-69
2022/09/07 07:45:29;;;;;;;12.15;6.13;;;;;;;-144.48;100.00;62369.91;4949414;28;20019;-69
2022/09/07 07:47:55;;;;;;;11.50;5.68;;;;;;;-144.48;100.00;62369.91;4951167;28;20061;-67
2022/09/07 07:50:20;;;;;;;11.18;5.85;;;;;;;-144.48;100.00;62369.91;4951150;28;20027;-72
2022/09/07 07:52:45;;;;;;;11.18;5.72;;;;;;;-144.48;100.00;62369.91;4944706;28;20043;-67
2022/09/07 07:55:11;;;;;;;19.98;6.40;;;;;;;-144.48;100.00;62369.91;4950724;29;20105;-71
2022/09/07 07:57:36;;;;;;;12.18;5.50;;;;;;;-144.48;100.00;62369.91;4968124;23;20421;-69
2022/09/07 08:00:02;;;;;;;11.55;5.40;;;;;;;-144.48;100.00;62369.91;4947764;28;20067;-70
2022/09/07 08:02:28;;;;;;;10.68;4.90;;;;;;;-144.48;100.00;62369.91;4946610;29;20038;-71
2022/09/07 08:04:53;;;;;;;10.90;4.57;;;;;;;-144.48;100.00;62369.91;4951852;28;20024;-67
2022/09/07 08:07:19;;;;;;;10.95;4.43;;;;;;;-144.48;100.00;62369.91;4950703;28;20039;-71
2022/09/07 08:09:46;;;;;;;11.50;4.80;;;;;;;-144.48;100.00;62369.91;4952366;28;20022;-68
2022/09/07 08:12:15;;;;;;;7.78;4.57;;;;;;;-144.48;100.00;62369.91;4953285;28;20262;-70
2022/09/07 08:14:41;;;;;;;17.60;6.63;;;;;;;-144.48;100.00;62369.91;4951818;28;20481;-70
2022/09/07 08:17:10;;;;;;;9.27;4.50;;;;;;;-144.48;100.00;62369.91;4951252;28;20541;-68
2022/09/07 08:19:36;;;;;;;10.32;4.55;;;;;;;-144.48;100.00;62369.91;4951663;28;20041;-69
2022/09/07 08:22:02;;;;;;;7.93;4.55;;;;;;;-144.48;100.00;62369.91;4938692;28;20031;-68
2022/09/07 08:24:29;;;;;;;13.77;5.00;;;;;;;-144.48;100.00;62369.91;4951440;28;20465;-70
2022/09/07 08:26:54;;;;;;;15.93;4.70;;;;;;;-144.48;100.00;62369.91;4947518;28;20027;-68
2022/09/07 08:29:19;;;;;;;10.10;5.07;;;;;;;-144.48;100.00;62369.91;4952010;28;20038;-69
2022/09/07 08:31:45;;;;;;;12.95;5.47;;;;;;;-144.48;100.00;62369.91;4951256;28;20038;-68
2022/09/07 08:34:10;;;;;;;9.02;4.63;;;;;;;-144.48;100.00;62369.91;4951770;28;20027;-70
2022/09/07 08:36:35;;;;;;;8.38;4.60;;;;;;;-144.48;100.00;62369.91;4950203;28;20050;-70
2022/09/07 08:39:01;;;;;;;11.85;5.43;;;;;;;-144.48;100.00;62369.91;4951409;28;20034;-69
2022/09/07 08:41:51;;;;;;;18.92;5.05;;;;;;;-144.48;100.00;62369.91;4950788;28;20031;-69
2022/09/07 08:44:42;;;;;;;17.23;5.47;;;;;;;-144.48;100.00;62369.91;4951648;28;20035;-69
2022/09/07 08:47:33;;;;;;;12.20;5.18;;;;;;;-144.48;100.00;62369.91;4949055;29;20066;-68
2022/09/07 08:50:20;;;;;;;16.10;5.28;;;;;;;-144.48;100.00;62369.91;4951746;28;20023;-70
2022/09/07 08:52:55;;;;;;;16.73;5.65;;;;;;;-144.48;100.00;62369.91;4951064;28;20031;-69
2022/09/07 08:55:37;;;;;;;12.68;4.72;;;;;;;-144.48;100.00;62369.91;4951332;28;20109;-69
2022/09/07 08:58:11;;;;;;;17.23;5.60;;;;;;;-144.48;100.00;62369.91;4949328;28;20046;-69
2022/09/07 09:00:38;;;;;;;17.33;7.25;;;;;;;-144.48;100.00;62369.91;4946131;28;20148;-68
2022/09/07 09:03:07;;;;;;;18.30;5.03;;;;;;;-144.48;100.00;62369.91;4950709;29;20027;-69
2022/09/07 09:05:41;;;;;;;17.35;5.80;;;;;;;-144.48;100.00;62369.91;4950633;28;20019;-69
2022/09/07 09:08:31;;;;;;;11.77;5.20;;;;;;;-144.48;100.00;62369.91;4938904;29;20038;-69
2022/09/07 09:11:06;;;;;;;13.02;5.70;;;;;;;-144.48;100.00;62369.91;4950609;28;20112;-68
2022/09/07 09:13:50;;;;;;;11.68;5.43;;;;;;;-144.48;100.00;62369.91;4960831;28;20114;-70
2022/09/07 09:16:19;;;;;;;16.88;5.53;;;;;;;-144.48;100.00;62369.91;4949779;28;20027;-69
2022/09/07 09:18:57;;;;;;;;;;;;;;;-144.48;100.00;62369.91;4952162;28;20032;-70
2022/09/07 09:21:22;;;;;;;17.17;5.25;;;;;;;-144.48;100.00;62369.91;4950013;28;20337;-67
2022/09/07 09:23:52;;;;;;;11.23;4.70;;;;;;;-144.48;100.00;62369.91;4951136;28;20516;-69
2022/09/07 09:26:29;;;;;;;11.95;4.65;;;;;;;-144.48;100.00;62369.91;4950793;28;20031;-70
2022/09/07 09:28:56;;;;;;;16.20;5.75;;;;;;;-144.48;100.00;62369.91;4958262;28;20424;-68
2022/09/07 09:31:31;;;;;;;8.95;5.00;;;;;;;-144.48;100.00;62369.91;4951477;28;20019;-70
2022/09/07 09:34:05;;;;;;;11.63;5.07;;;;;;;-144.48;100.00;62369.91;4952560;28;20114;-68
2022/09/07 09:36:34;;;;;;;8.85;5.40;;;;;;;-144.48;100.00;62369.91;4950195;28;20031;-70
2022/09/07 09:39:00;;;;;;;10.95;5.70;;;;;;;-144.48;100.00;62369.91;4952262;28;20106;-70
2022/09/07 09:41:36;;;;;;;17.80;8.70;;;;;;;-144.48;100.00;62369.91;4952129;28;20135;-69
2022/09/07 09:44:02;;;;;;;10.43;5.07;;;;;;;-144.48;100.00;62369.91;4952370;28;20027;-71
2022/09/07 09:46:30;;;;;;;15.80;5.53;;;;;;;-144.48;100.00;62369.91;4950554;28;20083;-68
2022/09/07 09:49:04;;;;;;;18.08;5.85;;;;;;;-144.48;100.00;62369.91;4952956;28;20536;-70
2022/09/07 09:51:32;;;;;;;14.40;5.57;;;;;;;-144.48;100.00;62369.91;4952485;28;20110;-70
2022/09/07 09:54:04;;;;;;;14.85;5.82;;;;;;;-144.48;100.00;62369.91;4950794;28;20608;-71
2022/09/07 09:56:41;;;;;;;22.33;5.68;;;;;;;-144.48;100.00;62369.91;4952007;28;20050;-70
2022/09/07 09:59:21;;;;;;;11.65;5.43;;;;;;;-144.48;100.00;62369.91;4951395;28;20061;-69
2022/09/07 10:01:48;;;;;;;10.52;5.03;;;;;;;-144.48;100.00;62369.91;4941137;28;20042;-71
2022/09/07 10:04:29;;;;;;;12.98;5.03;;;;;;;-144.48;100.00;62369.91;4952611;28;20038;-69
2022/09/07 10:06:56;;;;;;;18.95;5.22;;;;;;;-144.48;100.00;62369.91;4953868;28;20090;-68
2022/09/07 10:09:28;;;;;;;9.65;5.07;;;;;;;-144.48;100.00;62369.91;4953797;28;20031;-70
2022/09/07 10:11:58;;;;;;;14.48;5.30;;;;;;;-144.48;100.00;62369.91;4954214;28;20027;-71
2022/09/07 10:14:35;;;;;;;15.40;4.85;;;;;;;-144.48;100.00;62369.91;4954411;28;20427;-70
2022/09/07 10:17:09;;;;;;;10.20;5.50;;;;;;;-144.48;100.00;62369.91;4952734;28;20027;-68
2022/09/07 10:19:36;;;;;;;18.08;5.45;;;;;;;-144.48;100.00;62369.91;4942309;29;20110;-71
2022/09/07 10:22:36;;;;;;;10.18;4.97;;;;;;;-144.48;100.00;62369.91;4940573;28;20035;-69
2022/09/07 10:25:23;;;;;;;7.85;4.93;;;;;;;-144.48;100.00;62369.91;4953977;28;20031;-70
2022/09/07 10:28:01;;;;;;;12.02;5.30;;;;;;;-144.48;100.00;62369.91;4943595;29;20090;-69
2022/09/07 10:30:27;;;;;;;13.90;5.47;;;;;;;-144.48;100.00;62369.91;4951928;29;20103;-71
2022/09/07 10:32:56;;;;;;;14.23;4.93;;;;;;;-144.48;100.00;62369.91;4952176;28;20039;-69
2022/09/07 10:35:32;;;;;;;14.57;5.72;;;;;;;-144.48;100.00;62369.91;4953498;28;20382;-70
2022/09/07 10:38:13;;;;;;;9.43;5.88;;;;;;;-144.48;100.00;62369.91;4952901;28;20262;-69
2022/09/07 10:40:43;;;;;;;9.98;5.00;;;;;;;-144.48;100.00;62369.91;4952479;28;20031;-69
2022/09/07 10:43:23;;;;;;;11.90;5.13;;;;;;;-144.48;100.00;62369.91;4953893;28;20027;-70
2022/09/07 10:45:49;;;;;;;13.18;5.05;;;;;;;-144.48;100.00;62369.91;4952952;28;20019;-70
2022/09/07 10:48:17;;;;;;;12.07;5.05;;;;;;;-144.48;100.00;62369.91;4951706;28;20031;-72
2022/09/07 10:51:01;;;;;;;20.15;5.10;;;;;;;-144.48;100.00;62369.91;4953525;28;20027;-70
2022/09/07 10:53:32;;;;;;;13.30;5.55;;;;;;;-144.48;100.00;62369.91;4940903;29;20118;-68
2022/09/07 10:56:04;;;;;;;13.88;5.30;;;;;;;-144.48;100.00;62369.91;4952346;28;20029;-69
2022/09/07 10:58:51;;;;;;;11.68;5.45;;;;;;;-144.48;100.00;62369.91;4952318;28;20031;-69
2022/09/07 11:01:37;;;;;;;11.75;5.68;;;;;;;-144.48;100.00;62369.91;4944035;28;20027;-70
2022/09/07 11:04:45;;;;;;;9.50;4.88;;;;;;;-144.48;100.00;62369.91;4952011;28;20525;-71
2022/09/07 11:07:20;;;;;;;9.23;6.07;;;;;;;-144.48;100.00;62369.91;4946083;28;20095;-69
2022/09/07 11:10:00;;;;;;;20.02;5.88;;;;;;;-144.48;100.00;62369.91;4951425;28;20083;-70
2022/09/07 11:12:34;;;;;;;9.88;3.92;;;;;;;-144.48;100.00;62369.91;4953081;28;20097;-69